createdAt,value
2023-05-19T00:01:45.530Z,12.61
2023-05-19T00:04:15.087Z,12.61
2023-05-19T00:06:44.880Z,12.58
2023-05-19T00:09:13.809Z,12.58
2023-05-19T00:11:42.946Z,12.58
2023-05-19T00:14:11.941Z,12.69
2023-05-19T00:16:42.282Z,12.52
2023-05-19T00:19:11.381Z,12.52
2023-05-19T00:21:40.483Z,12.45
2023-05-19T00:24:09.177Z,12.45
2023-05-19T00:26:37.688Z,12.42
2023-05-19T00:29:06.537Z,12.44
2023-05-19T00:31:58.033Z,12.41
2023-05-19T00:34:26.584Z,12.36
2023-05-19T00:36:54.766Z,12.36
2023-05-19T00:39:24.705Z,12.29
2023-05-19T00:41:53.176Z,12.35
2023-05-19T00:44:21.329Z,12.20
2023-05-19T00:46:49.875Z,12.17
2023-05-19T00:49:18.069Z,12.12
2023-05-19T00:51:46.464Z,12.15
2023-05-19T00:54:15.004Z,12.10
2023-05-19T00:56:43.593Z,12.02
2023-05-19T00:59:12.154Z,12.05
2023-05-19T01:01:40.975Z,11.97
2023-05-19T01:04:10.696Z,11.97
2023-05-19T01:06:39.250Z,11.96
2023-05-19T01:09:07.734Z,11.87
2023-05-19T01:11:36.174Z,11.86
2023-05-19T01:14:04.320Z,11.82
2023-05-19T01:16:45.109Z,11.72
2023-05-19T01:19:51.176Z,11.74
2023-05-19T01:22:44.345Z,11.55
2023-05-19T01:26:07.082Z,11.50
2023-05-19T01:29:10.139Z,11.47
2023-05-19T01:31:40.095Z,11.48
2023-05-19T01:34:08.812Z,11.49
2023-05-19T01:36:38.489Z,11.46
2023-05-19T01:39:07.204Z,11.46
2023-05-19T01:41:36.323Z,11.36
2023-05-19T01:44:05.063Z,11.31
2023-05-19T01:46:33.727Z,11.34
2023-05-19T01:49:02.448Z,11.25
2023-05-19T01:51:31.471Z,11.23
2023-05-19T01:54:10.854Z,11.21
2023-05-19T01:56:54.077Z,11.21
2023-05-19T01:59:50.250Z,11.23
2023-05-19T02:02:49.529Z,11.21
2023-05-19T02:05:30.633Z,11.19
2023-05-19T02:08:15.974Z,11.16
2023-05-19T02:10:51.819Z,11.19
2023-05-19T02:13:25.154Z,11.14
2023-05-19T02:15:58.382Z,11.13
2023-05-19T02:18:29.965Z,11.01
2023-05-19T02:20:58.565Z,10.98
2023-05-19T02:23:27.242Z,11.03
2023-05-19T02:25:55.674Z,10.93
2023-05-19T02:28:27.760Z,10.89
2023-05-19T02:30:56.268Z,10.87
2023-05-19T02:33:27.518Z,10.87
2023-05-19T02:35:56.563Z,10.87
2023-05-19T02:38:25.193Z,10.90
2023-05-19T02:40:53.974Z,10.88
2023-05-19T02:43:22.457Z,10.84
2023-05-19T02:45:51.365Z,10.86
2023-05-19T02:48:21.478Z,10.80
2023-05-19T02:50:50.022Z,10.74
2023-05-19T02:53:18.718Z,10.77
2023-05-19T02:55:47.226Z,10.73
2023-05-19T02:58:15.679Z,10.74
2023-05-19T03:00:45.319Z,10.71
2023-05-19T03:03:15.025Z,10.70
2023-05-19T03:05:43.785Z,10.86
2023-05-19T03:08:12.330Z,10.75
2023-05-19T03:10:44.413Z,10.70
2023-05-19T03:13:12.641Z,10.64
2023-05-19T03:15:42.522Z,10.61
2023-05-19T03:18:12.048Z,10.60
2023-05-19T03:20:42.504Z,10.56
2023-05-19T03:23:10.982Z,10.55
2023-05-19T03:25:39.441Z,10.62
2023-05-19T03:28:07.502Z,10.60
2023-05-19T03:30:35.684Z,10.60
2023-05-19T03:33:05.623Z,10.64
2023-05-19T03:35:35.842Z,10.62
2023-05-19T03:38:04.251Z,10.62
2023-05-19T03:40:32.545Z,10.50
2023-05-19T03:43:01.525Z,10.45
2023-05-19T03:45:30.338Z,10.42
2023-05-19T03:48:00.968Z,10.45
2023-05-19T03:50:31.740Z,10.38
2023-05-19T03:53:00.922Z,10.34
2023-05-19T03:55:30.177Z,10.35
2023-05-19T03:57:58.662Z,10.37
2023-05-19T04:00:26.827Z,10.31
2023-05-19T04:02:55.406Z,10.35
2023-05-19T04:05:24.024Z,10.30
2023-05-19T04:07:52.523Z,10.27
2023-05-19T04:10:21.207Z,10.24
2023-05-19T04:12:49.839Z,10.20
2023-05-19T04:15:18.335Z,10.22
2023-05-19T04:17:47.582Z,10.27
2023-05-19T04:20:16.050Z,10.31
2023-05-19T04:22:44.566Z,10.29
2023-05-19T04:25:13.338Z,10.33
2023-05-19T04:27:42.574Z,10.41
2023-05-19T04:30:11.254Z,10.50
2023-05-19T04:32:41.464Z,10.47
2023-05-19T04:35:22.954Z,10.60
2023-05-19T04:37:54.307Z,10.52
2023-05-19T04:40:24.009Z,10.55
2023-05-19T04:42:54.247Z,10.54
2023-05-19T04:45:23.362Z,10.55
2023-05-19T04:47:52.787Z,10.62
2023-05-19T04:50:21.904Z,10.59
2023-05-19T04:52:50.373Z,10.62
2023-05-19T04:55:18.900Z,10.66
2023-05-19T04:57:47.030Z,10.72
2023-05-19T05:00:15.840Z,10.70
2023-05-19T05:02:44.441Z,10.77
2023-05-19T05:05:13.004Z,10.77
2023-05-19T05:07:41.461Z,10.84
2023-05-19T05:10:10.640Z,10.88
2023-05-19T05:12:39.417Z,10.96
2023-05-19T05:15:08.604Z,10.97
2023-05-19T05:17:37.841Z,11.06
2023-05-19T05:20:07.020Z,11.12
2023-05-19T05:22:36.108Z,11.18
2023-05-19T05:25:05.319Z,11.28
2023-05-19T05:27:33.992Z,11.32
2023-05-19T05:30:02.455Z,11.43
2023-05-19T05:32:30.694Z,11.54
2023-05-19T05:34:59.375Z,11.63
2023-05-19T05:37:27.465Z,11.72
2023-05-19T05:39:56.075Z,11.85
2023-05-19T05:42:24.547Z,11.95
2023-05-19T05:44:53.050Z,11.99
2023-05-19T05:47:21.458Z,12.21
2023-05-19T05:49:52.114Z,12.18
2023-05-19T05:52:23.465Z,12.14
2023-05-19T05:54:51.885Z,12.28
2023-05-19T05:57:20.557Z,12.41
2023-05-19T05:59:49.320Z,12.43
2023-05-19T06:02:18.909Z,12.46
2023-05-19T06:04:47.439Z,12.70
2023-05-19T06:07:15.982Z,12.99
2023-05-19T06:09:44.137Z,13.13
2023-05-19T06:12:12.294Z,13.40
2023-05-19T06:14:40.761Z,13.50
2023-05-19T06:17:09.233Z,13.74
2023-05-19T06:19:37.413Z,13.96
2023-05-19T06:22:06.001Z,14.15
2023-05-19T06:24:34.482Z,14.34
2023-05-19T06:27:02.964Z,14.39
2023-05-19T06:29:31.443Z,14.47
2023-05-19T06:32:00.171Z,14.59
2023-05-19T06:34:28.683Z,14.52
2023-05-19T06:36:57.177Z,14.71
2023-05-19T06:39:26.313Z,14.73
2023-05-19T06:41:55.192Z,14.76
2023-05-19T06:44:24.249Z,14.86
2023-05-19T06:46:52.416Z,15.00
2023-05-19T06:49:21.036Z,15.02
2023-05-19T06:51:49.493Z,15.08
2023-05-19T06:54:17.943Z,15.22
2023-05-19T06:56:46.467Z,15.43
2023-05-19T06:59:16.288Z,15.64
2023-05-19T07:01:44.767Z,15.69
2023-05-19T07:04:13.390Z,15.82
2023-05-19T07:06:41.886Z,16.01
2023-05-19T07:09:10.494Z,16.29
2023-05-19T07:11:39.458Z,16.53
2023-05-19T07:14:07.962Z,16.63
2023-05-19T07:16:36.612Z,16.67
2023-05-19T07:19:05.233Z,16.85
2023-05-19T07:21:33.784Z,17.00
2023-05-19T07:24:02.238Z,17.09
2023-05-19T07:26:31.601Z,17.13
2023-05-19T07:29:00.201Z,17.16
2023-05-19T07:31:28.740Z,16.99
2023-05-19T07:33:57.927Z,17.21
2023-05-19T07:36:27.221Z,17.36
2023-05-19T07:38:56.216Z,17.51
2023-05-19T07:41:25.016Z,17.52
2023-05-19T07:43:53.675Z,17.39
2023-05-19T07:46:22.387Z,17.29
2023-05-19T07:48:51.148Z,17.24
2023-05-19T07:51:19.665Z,17.20
2023-05-19T07:53:48.228Z,17.23
2023-05-19T07:56:16.796Z,17.06
2023-05-19T07:58:45.613Z,17.13
2023-05-19T08:01:14.086Z,17.01
2023-05-19T08:03:42.630Z,17.26
2023-05-19T08:06:11.429Z,17.46
2023-05-19T08:08:39.962Z,17.58
2023-05-19T08:11:08.334Z,17.40
2023-05-19T08:13:36.840Z,17.40
2023-05-19T08:16:05.429Z,17.31
2023-05-19T08:18:34.012Z,17.24
2023-05-19T08:21:02.599Z,17.54
2023-05-19T08:23:31.066Z,17.71
2023-05-19T08:25:59.521Z,18.08
2023-05-19T08:28:39.166Z,18.12
2023-05-19T08:31:07.693Z,17.83
2023-05-19T08:33:36.191Z,17.38
2023-05-19T08:36:04.802Z,17.43
2023-05-19T08:38:33.319Z,17.35
2023-05-19T08:41:01.819Z,17.74
2023-05-19T08:43:30.389Z,17.65
2023-05-19T08:46:01.302Z,17.46
2023-05-19T08:48:32.438Z,17.37
2023-05-19T08:51:51.891Z,17.47
2023-05-19T08:54:22.468Z,17.47
2023-05-19T08:56:51.078Z,17.54
2023-05-19T08:59:21.635Z,17.57
2023-05-19T09:01:51.502Z,17.58
2023-05-19T09:04:20.319Z,17.66
2023-05-19T09:06:50.309Z,17.73
2023-05-19T09:09:18.792Z,17.82
2023-05-19T09:11:48.215Z,17.86
2023-05-19T09:14:16.649Z,17.97
2023-05-19T09:16:49.814Z,17.93
2023-05-19T09:19:18.585Z,17.53
2023-05-19T09:21:47.242Z,17.31
2023-05-19T09:24:15.764Z,17.31
2023-05-19T09:26:44.664Z,17.42
2023-05-19T09:29:17.906Z,17.47
2023-05-19T09:32:05.420Z,17.57
2023-05-19T09:34:36.094Z,17.52
2023-05-19T09:37:05.243Z,17.29
2023-05-19T09:39:33.767Z,17.30
2023-05-19T09:42:07.058Z,17.17
2023-05-19T09:44:36.754Z,17.18
2023-05-19T09:47:05.286Z,17.05
2023-05-19T09:49:33.978Z,17.06
2023-05-19T09:52:04.841Z,17.06
2023-05-19T09:54:34.860Z,17.11
2023-05-19T09:57:08.406Z,17.34
2023-05-19T09:59:38.953Z,17.45
2023-05-19T10:02:12.399Z,17.61
2023-05-19T10:04:41.330Z,17.67
2023-05-19T10:07:11.365Z,17.64
2023-05-19T10:09:40.001Z,17.52
2023-05-19T10:12:09.816Z,17.61
2023-05-19T10:14:38.763Z,17.67
2023-05-19T10:17:07.486Z,17.55
2023-05-19T10:19:36.492Z,17.26
2023-05-19T10:22:05.274Z,17.17
2023-05-19T10:28:41.154Z,17.29
2023-05-19T10:31:14.816Z,17.14
2023-05-19T10:34:25.871Z,17.09
2023-05-19T10:37:32.889Z,16.97
2023-05-19T10:40:01.730Z,16.90
2023-05-19T10:42:42.372Z,16.99
2023-05-19T10:45:23.838Z,17.14
2023-05-19T10:47:52.612Z,17.32
2023-05-19T10:50:21.951Z,17.43
2023-05-19T10:52:58.003Z,17.41
2023-05-19T10:55:59.053Z,17.58
2023-05-19T10:58:41.643Z,17.66
2023-05-19T11:01:16.605Z,17.81
2023-05-19T11:03:49.523Z,17.96
2023-05-19T11:06:29.677Z,18.03
2023-05-19T11:09:28.397Z,18.18
2023-05-19T11:12:05.058Z,18.06
2023-05-19T11:14:34.173Z,18.03
2023-05-19T11:17:02.884Z,18.03
2023-05-19T11:19:38.297Z,18.08
2023-05-19T11:22:14.902Z,18.19
2023-05-19T11:24:50.636Z,18.09
2023-05-19T11:27:40.245Z,18.01
2023-05-19T11:30:09.561Z,17.94
2023-05-19T11:32:39.346Z,17.94
2023-05-19T11:35:09.869Z,17.93
2023-05-19T11:37:40.446Z,18.11
2023-05-19T11:40:09.428Z,18.07
2023-05-19T11:42:38.450Z,18.00
2023-05-19T11:45:07.460Z,18.15
2023-05-19T11:47:45.905Z,18.17
2023-05-19T11:50:20.932Z,18.39
2023-05-19T11:52:49.395Z,18.48
2023-05-19T11:55:22.459Z,18.45
2023-05-19T11:58:03.960Z,18.65
2023-05-19T12:00:39.371Z,18.70
2023-05-19T12:03:09.113Z,18.65
2023-05-19T12:05:43.798Z,18.73
2023-05-19T12:08:13.407Z,18.70
2023-05-19T12:10:42.038Z,18.58
2023-05-19T12:13:11.117Z,18.55
2023-05-19T12:15:39.847Z,18.47
2023-05-19T12:18:08.683Z,18.47
2023-05-19T12:20:37.718Z,18.54
2023-05-19T12:23:07.656Z,18.58
2023-05-19T12:25:36.433Z,18.46
2023-05-19T12:28:05.486Z,18.44
2023-05-19T12:30:35.317Z,18.44
2023-05-19T12:33:04.627Z,18.52
2023-05-19T12:35:34.551Z,18.57
2023-05-19T12:38:06.731Z,18.47
2023-05-19T12:40:36.792Z,18.70
2023-05-19T12:43:05.637Z,18.58
2023-05-19T12:45:39.051Z,18.60
2023-05-19T12:48:12.908Z,18.53
2023-05-19T12:50:41.430Z,18.65
2023-05-19T12:53:11.976Z,18.67
2023-05-19T12:55:43.164Z,18.75
2023-05-19T12:58:13.175Z,18.78
2023-05-19T13:00:47.548Z,18.70
2023-05-19T13:03:22.058Z,18.71
2023-05-19T13:05:52.259Z,18.73
2023-05-19T13:08:24.058Z,18.65
2023-05-19T13:10:52.724Z,18.72
2023-05-19T13:13:22.085Z,18.57
2023-05-19T13:15:50.675Z,18.35
2023-05-19T13:18:19.789Z,18.48
2023-05-19T13:20:50.334Z,18.64
2023-05-19T13:23:19.390Z,18.67
2023-05-19T13:25:48.048Z,18.83
2023-05-19T13:28:16.576Z,18.84
2023-05-19T13:30:46.187Z,19.04
2023-05-19T13:33:15.214Z,19.15
2023-05-19T13:35:43.854Z,19.03
2023-05-19T13:38:12.495Z,19.03
2023-05-19T13:40:41.397Z,19.11
2023-05-19T13:43:10.249Z,19.09
2023-05-19T13:45:39.243Z,19.30
2023-05-19T13:48:08.618Z,19.16
2023-05-19T13:50:37.557Z,19.01
2023-05-19T13:53:06.078Z,19.13
2023-05-19T13:55:34.814Z,19.07
2023-05-19T13:58:03.560Z,19.07
2023-05-19T14:00:38.357Z,18.98
2023-05-19T14:03:12.532Z,18.96
2023-05-19T14:05:53.587Z,19.05
2023-05-19T14:08:27.553Z,18.98
2023-05-19T14:11:02.635Z,18.92
2023-05-19T14:13:40.931Z,18.91
2023-05-19T14:16:12.605Z,19.00
2023-05-19T14:18:45.506Z,19.02
2023-05-19T14:21:18.925Z,19.07
2023-05-19T14:23:57.868Z,18.99
2023-05-19T14:26:29.962Z,18.98
2023-05-19T14:29:10.735Z,18.65
2023-05-19T14:31:50.083Z,18.56
2023-05-19T14:34:21.346Z,18.39
2023-05-19T14:36:50.303Z,18.28
2023-05-19T14:39:30.659Z,18.23
2023-05-19T14:42:18.220Z,18.23
2023-05-19T14:44:50.284Z,18.05
2023-05-19T14:47:18.867Z,17.84
2023-05-19T14:49:47.792Z,17.91
2023-05-19T14:52:25.967Z,17.96
2023-05-19T14:54:56.188Z,18.17
2023-05-19T14:57:31.762Z,18.26
2023-05-19T15:00:00.359Z,18.21
2023-05-19T15:02:35.281Z,18.32
2023-05-19T15:05:26.202Z,18.24
2023-05-19T15:07:56.226Z,18.18
2023-05-19T15:10:33.760Z,18.17
2023-05-19T15:13:08.112Z,18.01
2023-05-19T15:15:40.231Z,17.97
2023-05-19T15:18:09.677Z,17.96
2023-05-19T15:20:38.979Z,18.01
2023-05-19T15:23:07.545Z,18.09
2023-05-19T15:25:36.058Z,18.10
2023-05-19T15:28:05.709Z,18.15
2023-05-19T15:30:34.661Z,18.12
2023-05-19T15:33:03.454Z,18.17
2023-05-19T15:35:32.145Z,18.27
2023-05-19T15:38:05.268Z,18.10
2023-05-19T15:40:34.818Z,18.06
2023-05-19T15:43:03.597Z,17.94
2023-05-19T15:45:32.076Z,17.92
2023-05-19T15:48:03.896Z,17.89
2023-05-19T15:50:33.176Z,17.86
2023-05-19T15:53:01.841Z,17.93
2023-05-19T15:55:30.720Z,17.88
2023-05-19T15:57:59.141Z,17.79
2023-05-19T16:00:27.606Z,17.78
2023-05-19T16:02:56.173Z,17.78
2023-05-19T16:05:24.962Z,17.91
2023-05-19T16:07:53.406Z,17.91
2023-05-19T16:10:22.003Z,17.89
2023-05-19T16:12:50.634Z,17.76
2023-05-19T16:15:19.344Z,17.68
2023-05-19T16:17:47.833Z,17.58
2023-05-19T16:20:17.014Z,17.65
2023-05-19T16:22:45.546Z,17.57
2023-05-19T16:25:14.091Z,17.55
2023-05-19T16:27:42.585Z,17.44
2023-05-19T16:30:11.806Z,17.42
2023-05-19T16:32:40.696Z,17.41
2023-05-19T16:35:09.934Z,17.39
2023-05-19T16:37:38.572Z,17.42
2023-05-19T16:40:07.781Z,17.40
2023-05-19T16:42:36.289Z,17.39
2023-05-19T16:45:08.911Z,17.31
2023-05-19T16:47:37.355Z,17.27
2023-05-19T16:50:06.594Z,17.31
2023-05-19T16:52:35.150Z,17.25
2023-05-19T16:55:03.729Z,17.15
2023-05-19T16:57:32.229Z,17.19
2023-05-19T17:00:00.804Z,17.14
2023-05-19T17:02:30.616Z,17.12
2023-05-19T17:04:59.623Z,17.14
2023-05-19T17:07:29.214Z,16.97
2023-05-19T17:09:57.597Z,16.93
2023-05-19T17:12:26.122Z,16.88
2023-05-19T17:14:54.774Z,16.85
2023-05-19T17:17:23.394Z,16.80
2023-05-19T17:19:52.251Z,16.79
2023-05-19T17:22:20.838Z,16.83
2023-05-19T17:24:49.334Z,16.86
2023-05-19T17:27:17.822Z,16.81
2023-05-19T17:29:52.158Z,16.73
2023-05-19T17:32:25.492Z,16.67
2023-05-19T17:34:54.489Z,16.70
2023-05-19T17:37:25.717Z,16.63
2023-05-19T17:39:54.502Z,16.61
2023-05-19T17:42:23.421Z,16.59
2023-05-19T17:44:52.133Z,16.51
2023-05-19T17:47:20.685Z,16.60
2023-05-19T17:49:50.343Z,16.54
2023-05-19T17:52:19.317Z,16.51
2023-05-19T17:54:47.988Z,16.45
2023-05-19T17:57:18.210Z,16.44
2023-05-19T17:59:47.087Z,16.41
2023-05-19T18:02:15.939Z,16.38
2023-05-19T18:04:44.809Z,16.40
2023-05-19T18:07:13.628Z,16.27
2023-05-19T18:09:46.791Z,16.31
2023-05-19T18:12:15.396Z,16.25
2023-05-19T18:14:43.994Z,16.20
2023-05-19T18:17:12.716Z,16.16
2023-05-19T18:19:41.189Z,16.15
2023-05-19T18:22:12.882Z,16.13
2023-05-19T18:24:41.484Z,16.04
2023-05-19T18:27:09.998Z,15.93
2023-05-19T18:29:39.381Z,15.88
2023-05-19T18:32:08.448Z,15.95
2023-05-19T18:34:37.043Z,15.95
2023-05-19T18:37:05.753Z,15.91
2023-05-19T18:39:34.314Z,15.84
2023-05-19T18:42:02.976Z,15.81
2023-05-19T18:44:31.722Z,15.76
2023-05-19T18:47:00.266Z,15.80
2023-05-19T18:49:28.735Z,15.74
2023-05-19T18:51:57.237Z,15.67
2023-05-19T18:54:25.839Z,15.68
2023-05-19T18:56:55.153Z,15.55
2023-05-19T18:59:24.565Z,15.56
2023-05-19T19:01:55.366Z,15.48
2023-05-19T19:04:24.379Z,15.41
2023-05-19T19:06:53.537Z,15.40
2023-05-19T19:09:21.843Z,15.40
2023-05-19T19:11:50.241Z,15.32
2023-05-19T19:14:19.454Z,15.30
2023-05-19T19:16:48.272Z,15.22
2023-05-19T19:19:17.201Z,15.24
2023-05-19T19:21:46.248Z,15.26
2023-05-19T19:24:15.045Z,15.18
2023-05-19T19:26:43.559Z,15.14
2023-05-19T19:29:12.302Z,15.12
2023-05-19T19:31:40.854Z,15.03
2023-05-19T19:34:09.594Z,15.04
2023-05-19T19:36:38.245Z,15.04
2023-05-19T19:39:06.787Z,15.08
2023-05-19T19:41:35.001Z,15.08
2023-05-19T19:44:03.538Z,15.05
2023-05-19T19:46:32.247Z,14.94
2023-05-19T19:49:02.325Z,14.92
2023-05-19T19:51:31.662Z,14.90
2023-05-19T19:54:00.542Z,14.84
2023-05-19T19:56:29.163Z,14.82
2023-05-19T19:58:59.341Z,14.75
2023-05-19T20:01:28.366Z,14.70
2023-05-19T20:03:57.638Z,14.60
2023-05-19T20:06:26.642Z,14.54
2023-05-19T20:08:55.192Z,14.55
2023-05-19T20:11:24.583Z,14.45
2023-05-19T20:13:53.829Z,14.38
2023-05-19T20:16:22.428Z,14.39
2023-05-19T20:18:51.694Z,14.28
2023-05-19T20:21:20.504Z,14.34
2023-05-19T20:23:50.442Z,14.42
2023-05-19T20:26:18.956Z,14.39
2023-05-19T20:28:47.932Z,14.29
2023-05-19T20:31:16.565Z,14.22
2023-05-19T20:33:45.223Z,14.22
2023-05-19T20:36:13.857Z,14.21
2023-05-19T20:38:42.502Z,14.09
2023-05-19T20:41:11.437Z,14.12
2023-05-19T20:43:40.118Z,14.09
2023-05-19T20:46:08.832Z,14.08
2023-05-19T20:48:37.646Z,13.96
2023-05-19T20:51:06.417Z,13.89
2023-05-19T20:53:35.236Z,13.78
2023-05-19T20:56:05.293Z,13.82
2023-05-19T20:58:34.351Z,13.81
2023-05-19T21:01:03.304Z,13.77
2023-05-19T21:03:32.229Z,13.70
2023-05-19T21:06:01.277Z,13.65
2023-05-19T21:08:29.889Z,13.62
2023-05-19T21:10:58.127Z,13.56
2023-05-19T21:13:26.781Z,13.49
2023-05-19T21:15:57.115Z,13.48
2023-05-19T21:18:25.393Z,13.45
2023-05-19T21:20:53.959Z,13.52
2023-05-19T21:23:22.723Z,13.44
2023-05-19T21:25:52.121Z,13.41
2023-05-19T21:28:20.425Z,13.34
2023-05-19T21:30:50.066Z,13.33
2023-05-19T21:33:18.854Z,13.29
2023-05-19T21:35:47.534Z,13.23
2023-05-19T21:40:51.160Z,13.15
2023-05-19T21:43:21.890Z,13.08
2023-05-19T21:45:50.554Z,13.15
2023-05-19T21:48:19.327Z,13.14
2023-05-19T21:50:47.531Z,13.10
2023-05-19T21:53:15.876Z,13.16
2023-05-19T21:55:44.635Z,13.09
2023-05-19T21:58:13.397Z,13.06
2023-05-19T22:00:42.084Z,13.00
2023-05-19T22:03:10.285Z,12.92
2023-05-19T22:05:38.768Z,12.92
2023-05-19T22:08:07.427Z,12.88
2023-05-19T22:10:37.350Z,12.86
2023-05-19T22:13:06.012Z,12.80
2023-05-19T22:15:34.152Z,12.80
2023-05-19T22:18:02.361Z,12.86
2023-05-19T22:20:31.024Z,12.84
2023-05-19T22:23:01.234Z,12.83
2023-05-19T22:25:29.573Z,12.84
2023-05-19T22:27:59.049Z,12.82
2023-05-19T22:30:27.602Z,12.80
2023-05-19T22:32:56.523Z,12.79
2023-05-19T22:35:24.936Z,12.91
2023-05-19T22:37:53.110Z,12.89
2023-05-19T22:40:21.937Z,12.91
2023-05-19T22:42:50.769Z,12.89
2023-05-19T22:45:19.605Z,12.85
2023-05-19T22:47:48.506Z,12.88
2023-05-19T22:50:17.499Z,12.86
2023-05-19T22:52:46.106Z,12.89
2023-05-19T22:55:14.424Z,12.89
2023-05-19T22:57:42.596Z,12.98
2023-05-19T23:00:14.189Z,12.93
2023-05-19T23:02:43.438Z,12.92
2023-05-19T23:05:12.356Z,12.88
2023-05-19T23:07:40.909Z,12.89
2023-05-19T23:10:09.753Z,12.78
2023-05-19T23:12:38.401Z,12.77
2023-05-19T23:15:08.568Z,12.75
2023-05-19T23:17:37.385Z,12.74
2023-05-19T23:20:06.397Z,12.68
2023-05-19T23:22:34.709Z,12.73
2023-05-19T23:25:07.916Z,12.74
2023-05-19T23:27:37.414Z,12.75
2023-05-19T23:30:06.651Z,12.74
2023-05-19T23:32:35.247Z,12.79
2023-05-19T23:35:18.351Z,12.79
2023-05-19T23:37:46.901Z,12.74
2023-05-19T23:40:16.336Z,12.71
2023-05-19T23:42:44.899Z,12.75
2023-05-19T23:45:13.790Z,12.70
2023-05-19T23:47:42.516Z,12.70
2023-05-19T23:50:11.527Z,12.70
2023-05-19T23:52:40.298Z,12.70
2023-05-19T23:55:09.944Z,12.74
2023-05-19T23:57:38.442Z,12.68
